Home   Weather   France   Valence (Drôme)   Past weeks
Flag for France

Past Weather in Valence (Drôme), Drôme, France — Yesterday and Last 2 Weeks

Currently: 37 °F. Overcast. (Weather station: Grenoble / St. Geoirs, France). See more current weather

Past Weather in Valence (Drôme) — Graph

°F

Valence (Drôme) Temperature Yesterday

Maximum temperature yesterday: 43 °F (at 1:00 pm)
Minimum temperature yesterday: 34 °F (at 11:30 pm)
Average temperature yesterday: 40 °F

High & Low Weather Summary for the Past Weeks

 TemperatureHumidityPressure
High54 °F (Nov 25, 2:00 pm)100% (Nov 21, 2:00 am)30.42 "Hg (Nov 21, 2:00 am)
Low30 °F (Nov 23, 2:00 am)54% (Nov 20, 3:30 pm)29.53 "Hg (Nov 21, 7:00 pm)
Average42 °F90%29.99 "Hg
* Reported Nov 20 12:00 am — Dec 5 12:30 am, Valence (Drôme). Weather by CustomWeather, © 2022

Note: Actual official high and low records may vary slightly from our data, if they occured in-between our weather recording intervals... More about our weather records

Valence (Drôme) Weather History for the Previous 24 Hours

Scroll right to see more
 ConditionsComfort  
Time TempWeatherWind HumidityBarometerVisibility
12:30 am
Mon, Dec 5
36 °FFog.6 mph100%29.98 "Hg3 mi
12:00 am36 °FFog.6 mph100%29.98 "Hg3 mi
11:30 pm
Sun, Dec 4
34 °FFog.5 mph100%29.98 "Hg2 mi
11:00 pm36 °FFog.5 mph100%29.98 "Hg3 mi
10:30 pm39 °FPassing clouds.3 mph93%29.95 "Hg4 mi
10:00 pm39 °FMostly cloudy.3 mph93%29.95 "Hg5 mi
9:30 pm39 °FPassing clouds.5 mph100%29.95 "Hg4 mi
9:00 pm37 °FFog.3 mph100%29.92 "Hg2 mi
8:30 pm37 °FFog.5 mph100%29.92 "Hg2 mi
8:00 pm41 °FPassing clouds.2 mph93%29.89 "Hg4 mi
7:30 pm41 °FLow clouds.3 mph100%29.89 "Hg5 mi
7:00 pm41 °FPartly cloudy.3 mph93%29.89 "Hg5 mi
6:30 pm41 °FPassing clouds.9 mph93%29.86 "HgN/A
6:00 pm43 °FLight rain. Partly cloudy.8 mph87%29.83 "HgN/A
5:30 pm41 °FLight rain. Partly cloudy.12 mph93%29.83 "HgN/A
5:00 pm41 °FRain. Passing clouds.15 mph93%29.83 "Hg6 mi
4:30 pm41 °FLight rain. More clouds than sun.9 mph93%29.83 "Hg4 mi
4:00 pm41 °FLight rain. Fog.6 mph100%29.86 "Hg1 mi
3:30 pm41 °FRain. Fog.8 mph100%29.83 "Hg1 mi
3:00 pm41 °FRain. Fog.6 mph100%29.83 "Hg2 mi
2:30 pm43 °FRain. Fog.No wind87%29.83 "Hg3 mi
2:00 pm43 °FLight rain. Partly sunny.5 mph93%29.80 "Hg4 mi
1:30 pm43 °FOvercast.12 mph87%29.80 "HgN/A
1:00 pm43 °FOvercast.14 mph87%29.80 "HgN/A
12:30 pm41 °FOvercast.14 mph93%29.80 "Hg5 mi
12:00 pm41 °FLow clouds.12 mph93%29.83 "Hg4 mi
11:30 am41 °FBroken clouds.16 mph93%29.83 "Hg4 mi
11:00 am39 °FLight rain. Fog.13 mph93%29.83 "Hg2 mi
10:30 am39 °FLight rain. Fog.14 mph93%29.83 "Hg2 mi
10:00 am39 °FLight rain. Fog.14 mph93%29.83 "Hg3 mi
9:30 am39 °FLight rain. Fog.15 mph93%29.83 "Hg3 mi
9:00 am39 °FLight rain. Cloudy.13 mph93%29.83 "Hg4 mi
8:30 am37 °FPartly sunny.9 mph100%29.83 "Hg4 mi
8:00 am37 °FRain. Fog.10 mph93%29.83 "Hg3 mi
7:00 am39 °FLight rain. Fog.9 mph93%29.83 "Hg3 mi
6:30 am37 °FLight rain. Passing clouds.8 mph100%29.83 "Hg4 mi
6:00 am37 °FMostly cloudy.12 mph93%29.83 "Hg4 mi
5:30 am37 °FOvercast.7 mph93%29.80 "Hg4 mi
5:00 am37 °FMostly cloudy.6 mph100%29.80 "Hg4 mi
4:30 am39 °FLight rain. Fog.3 mph93%29.83 "Hg3 mi
4:00 am39 °FMostly cloudy.7 mph93%29.83 "Hg4 mi
3:30 am39 °FMostly cloudy.3 mph93%29.80 "Hg4 mi
3:00 am39 °FClear.7 mph87%29.80 "Hg5 mi
2:30 am39 °FMostly cloudy.5 mph93%29.80 "Hg4 mi
2:00 am37 °FFog.2 mph100%29.80 "Hg3 mi
Weather by CustomWeather, © 2022

See weather overview